createdAt,value
2019-03-08T00:00:36.049Z,5.70
2019-03-08T00:03:05.149Z,5.70
2019-03-08T00:05:34.073Z,5.70
2019-03-08T00:08:03.186Z,5.70
2019-03-08T00:10:32.562Z,5.70
2019-03-08T00:13:03.031Z,5.70
2019-03-08T00:15:31.956Z,5.60
2019-03-08T00:18:00.846Z,5.60
2019-03-08T00:20:29.781Z,5.60
2019-03-08T00:22:58.677Z,5.60
2019-03-08T00:25:27.624Z,5.60
2019-03-08T00:27:56.515Z,5.60
2019-03-08T00:30:27.088Z,5.60
2019-03-08T00:32:55.984Z,5.60
2019-03-08T00:35:30.057Z,5.70
2019-03-08T00:38:01.080Z,5.60
2019-03-08T00:40:31.615Z,5.70
2019-03-08T00:43:01.602Z,5.60
2019-03-08T00:45:30.529Z,5.70
2019-03-08T00:48:01.211Z,5.70
2019-03-08T00:50:37.547Z,5.70
2019-03-08T00:53:06.540Z,5.70
2019-03-08T00:55:35.876Z,5.80
2019-03-08T00:58:04.856Z,5.80
2019-03-08T01:00:34.157Z,5.90
2019-03-08T01:03:03.044Z,5.80
2019-03-08T01:05:31.991Z,5.90
2019-03-08T01:08:01.477Z,5.90
2019-03-08T01:10:31.051Z,5.90
2019-03-08T01:13:00.532Z,5.90
2019-03-08T01:15:29.473Z,5.90
2019-03-08T01:17:58.360Z,5.90
2019-03-08T01:20:28.760Z,5.90
2019-03-08T01:22:58.828Z,5.90
2019-03-08T01:25:29.167Z,5.80
2019-03-08T01:28:06.859Z,5.80
2019-03-08T01:30:37.394Z,5.80
2019-03-08T01:33:06.276Z,5.80
2019-03-08T01:35:35.873Z,5.80
2019-03-08T01:38:05.262Z,5.80
2019-03-08T01:40:35.417Z,5.80
2019-03-08T01:43:05.807Z,5.80
2019-03-08T01:45:34.695Z,5.80
2019-03-08T01:48:03.835Z,5.80
2019-03-08T01:50:32.720Z,5.80
2019-03-08T01:53:01.658Z,5.90
2019-03-08T01:55:30.549Z,5.90
2019-03-08T01:57:59.486Z,5.90
2019-03-08T02:00:28.376Z,5.90
2019-03-08T02:02:57.311Z,5.90
2019-03-08T02:05:26.207Z,5.90
2019-03-08T02:07:55.145Z,5.90
2019-03-08T02:10:24.047Z,5.90
2019-03-08T02:12:52.981Z,6.00
2019-03-08T02:15:21.884Z,6.00
2019-03-08T02:17:51.214Z,6.00
2019-03-08T02:20:21.915Z,5.90
2019-03-08T02:22:50.854Z,5.90
2019-03-08T02:25:19.754Z,5.90
2019-03-08T02:27:48.704Z,5.90
2019-03-08T02:30:20.866Z,5.90
2019-03-08T02:32:49.797Z,5.90
2019-03-08T02:35:20.395Z,5.90
2019-03-08T02:37:49.329Z,5.90
2019-03-08T02:40:32.934Z,5.90
2019-03-08T02:43:03.284Z,5.90
2019-03-08T02:45:32.288Z,6.00
2019-03-08T02:48:01.225Z,6.00
2019-03-08T02:50:30.123Z,6.00
2019-03-08T02:52:59.059Z,6.00
2019-03-08T02:55:27.949Z,6.10
2019-03-08T02:57:56.899Z,6.10
2019-03-08T03:00:28.564Z,6.00
2019-03-08T03:02:57.502Z,6.00
2019-03-08T03:05:26.400Z,6.10
2019-03-08T03:07:55.347Z,6.10
2019-03-08T03:10:24.541Z,6.10
2019-03-08T03:12:53.676Z,6.10
2019-03-08T03:15:22.565Z,6.10
2019-03-08T03:17:51.492Z,6.10
2019-03-08T03:20:20.589Z,6.10
2019-03-08T03:22:49.522Z,6.20
2019-03-08T03:25:18.418Z,6.20
2019-03-08T03:27:47.376Z,6.20
2019-03-08T03:30:20.651Z,6.20
2019-03-08T03:32:49.556Z,6.20
2019-03-08T03:35:18.585Z,6.20
2019-03-08T03:37:47.882Z,6.20
2019-03-08T03:40:17.912Z,6.20
2019-03-08T03:42:47.005Z,6.20
2019-03-08T03:45:22.210Z,6.20
2019-03-08T03:47:51.104Z,6.20
2019-03-08T03:50:20.352Z,6.30
2019-03-08T03:52:49.240Z,6.30
2019-03-08T03:55:19.270Z,6.30
2019-03-08T03:57:48.173Z,6.30
2019-03-08T04:00:24.463Z,6.30
2019-03-08T04:02:53.661Z,6.30
2019-03-08T04:05:22.585Z,6.30
2019-03-08T04:07:51.481Z,6.30
2019-03-08T04:10:20.446Z,6.30
2019-03-08T04:12:49.424Z,6.30
2019-03-08T04:15:22.231Z,6.30
2019-03-08T04:17:51.128Z,6.30
2019-03-08T04:20:20.970Z,6.40
2019-03-08T04:22:49.852Z,6.30
2019-03-08T04:25:18.930Z,6.30
2019-03-08T04:27:47.823Z,6.40
2019-03-08T04:30:18.934Z,6.30
2019-03-08T04:32:47.820Z,6.30
2019-03-08T04:35:16.758Z,6.30
2019-03-08T04:37:45.656Z,6.30
2019-03-08T04:40:15.959Z,6.30
2019-03-08T04:42:44.870Z,6.30
2019-03-08T04:45:17.960Z,6.30
2019-03-08T04:47:46.832Z,6.40
2019-03-08T04:50:16.664Z,6.40
2019-03-08T04:52:45.563Z,6.30
2019-03-08T04:55:20.140Z,6.30
2019-03-08T04:57:49.443Z,6.30
2019-03-08T05:00:19.284Z,6.30
2019-03-08T05:02:48.179Z,6.20
2019-03-08T05:05:17.115Z,6.20
2019-03-08T05:07:46.011Z,6.20
2019-03-08T05:10:17.123Z,6.20
2019-03-08T05:12:46.011Z,6.20
2019-03-08T05:15:15.198Z,6.20
2019-03-08T05:17:44.093Z,6.20
2019-03-08T05:20:13.111Z,6.20
2019-03-08T05:22:42.051Z,6.20
2019-03-08T05:25:14.613Z,6.20
2019-03-08T05:27:43.552Z,6.20
2019-03-08T05:30:14.627Z,6.20
2019-03-08T05:32:43.573Z,6.20
2019-03-08T05:35:13.655Z,6.20
2019-03-08T05:37:42.596Z,6.10
2019-03-08T05:40:12.994Z,6.00
2019-03-08T05:42:41.927Z,5.90
2019-03-08T05:45:12.520Z,5.80
2019-03-08T05:47:41.482Z,5.60
2019-03-08T05:50:12.249Z,5.60
2019-03-08T05:52:41.697Z,5.50
2019-03-08T05:55:11.404Z,5.40
2019-03-08T05:57:40.633Z,5.40
2019-03-08T06:00:18.385Z,5.30
2019-03-08T06:02:47.396Z,5.20
2019-03-08T06:05:16.283Z,5.10
2019-03-08T06:07:45.213Z,5.00
2019-03-08T06:10:31.147Z,5.00
2019-03-08T06:13:01.482Z,5.00
2019-03-08T06:15:30.376Z,5.00
2019-03-08T06:17:59.611Z,5.00
2019-03-08T06:20:28.605Z,5.00
2019-03-08T06:22:57.647Z,5.00
2019-03-08T06:25:26.949Z,5.00
2019-03-08T06:27:55.896Z,5.10
2019-03-08T06:30:24.793Z,5.10
2019-03-08T06:32:54.034Z,5.10
2019-03-08T06:35:22.930Z,5.10
2019-03-08T06:37:53.743Z,5.10
2019-03-08T06:40:27.286Z,5.20
2019-03-08T06:43:16.008Z,5.20
2019-03-08T06:45:47.089Z,5.10
2019-03-08T06:48:16.617Z,5.10
2019-03-08T06:53:43.826Z,5.20
2019-03-08T06:56:32.542Z,5.30
2019-03-08T06:59:07.801Z,5.30
2019-03-08T07:01:40.491Z,5.30
2019-03-08T07:04:14.101Z,5.40
2019-03-08T07:06:44.485Z,5.40
2019-03-08T07:09:15.635Z,5.30
2019-03-08T07:14:41.932Z,5.40
2019-03-08T07:17:18.011Z,5.40
2019-03-08T07:25:54.410Z,5.10
2019-03-08T07:28:53.607Z,5.00
2019-03-08T07:31:36.212Z,5.10
2019-03-08T07:34:15.465Z,5.10
2019-03-08T07:36:57.545Z,5.10
2019-03-08T07:39:30.354Z,5.20
2019-03-08T07:42:10.513Z,5.30
2019-03-08T07:45:03.669Z,5.30
2019-03-08T07:47:44.175Z,5.30
2019-03-08T07:50:23.626Z,5.30
2019-03-08T07:53:02.897Z,5.30
2019-03-08T07:55:41.716Z,5.40
2019-03-08T07:58:23.711Z,5.40
2019-03-08T08:01:04.059Z,5.40
2019-03-08T08:07:41.585Z,5.50
2019-03-08T08:10:25.447Z,5.60
2019-03-08T08:13:08.195Z,5.60
2019-03-08T08:19:14.117Z,5.80
2019-03-08T08:21:59.662Z,5.90
2019-03-08T08:24:35.641Z,6.00
2019-03-08T08:36:22.377Z,6.10
2019-03-08T08:48:39.345Z,6.00
2019-03-08T08:51:12.494Z,6.10
2019-03-08T08:53:43.002Z,6.10
2019-03-08T08:56:13.959Z,6.00
2019-03-08T08:58:45.508Z,5.90
2019-03-08T09:01:21.785Z,5.90
2019-03-08T09:03:53.651Z,5.90
2019-03-08T09:06:24.239Z,5.90
2019-03-08T09:09:10.823Z,6.00
2019-03-08T09:11:57.373Z,6.00
2019-03-08T09:14:30.398Z,6.10
2019-03-08T09:17:00.924Z,6.20
2019-03-08T09:19:31.407Z,6.30
2019-03-08T09:22:20.652Z,6.40
2019-03-08T09:24:57.011Z,6.40
2019-03-08T09:27:30.273Z,6.30
2019-03-08T09:30:06.501Z,6.30
2019-03-08T09:32:37.918Z,6.30
2019-03-08T09:35:16.083Z,6.30
2019-03-08T09:37:46.611Z,6.50
2019-03-08T09:40:20.522Z,6.60
2019-03-08T09:42:51.042Z,6.80
2019-03-08T09:45:30.370Z,7.00
2019-03-08T09:48:00.883Z,7.00
2019-03-08T09:50:47.663Z,6.90
2019-03-08T09:53:21.055Z,7.00
2019-03-08T09:56:00.256Z,7.10
2019-03-08T09:58:30.790Z,7.10
2019-03-08T10:01:17.889Z,7.20
2019-03-08T10:03:48.419Z,7.20
2019-03-08T10:06:21.653Z,7.10
2019-03-08T10:09:08.554Z,7.20
2019-03-08T10:11:39.029Z,7.20
2019-03-08T10:14:09.557Z,7.00
2019-03-08T10:16:40.035Z,7.20
2019-03-08T10:19:10.546Z,7.40
2019-03-08T10:21:53.083Z,7.40
2019-03-08T10:24:26.284Z,7.30
2019-03-08T10:27:02.672Z,7.50
2019-03-08T10:29:39.378Z,7.40
2019-03-08T10:32:17.412Z,7.30
2019-03-08T10:34:47.956Z,7.40
2019-03-08T10:37:27.399Z,7.50
2019-03-08T10:40:06.976Z,7.40
2019-03-08T10:42:37.696Z,7.50
2019-03-08T10:45:16.791Z,7.70
2019-03-08T10:47:56.128Z,7.60
2019-03-08T10:50:24.266Z,7.60
2019-03-08T10:53:04.203Z,6.70
2019-03-08T10:55:39.249Z,7.70
2019-03-08T10:58:13.788Z,8.00
2019-03-08T11:01:02.130Z,7.90
2019-03-08T11:03:36.088Z,7.90
2019-03-08T11:06:13.299Z,7.80
2019-03-08T11:08:46.981Z,7.80
2019-03-08T11:11:20.638Z,7.70
2019-03-08T11:13:52.460Z,7.70
2019-03-08T11:16:35.234Z,7.60
2019-03-08T11:19:18.172Z,7.50
2019-03-08T11:22:02.382Z,7.60
2019-03-08T11:24:35.807Z,7.60
2019-03-08T11:27:11.955Z,7.70
2019-03-08T11:29:42.772Z,7.90
2019-03-08T11:32:23.104Z,8.40
2019-03-08T11:34:59.967Z,8.40
2019-03-08T11:37:33.361Z,8.10
2019-03-08T11:40:09.628Z,8.20
2019-03-08T11:42:49.240Z,8.20
2019-03-08T11:45:19.772Z,8.10
2019-03-08T11:48:02.371Z,8.10
2019-03-08T11:50:35.638Z,8.10
2019-03-08T11:53:06.131Z,7.90
2019-03-08T11:55:44.327Z,8.20
2019-03-08T11:58:32.994Z,8.40
2019-03-08T12:01:04.361Z,8.60
2019-03-08T12:03:39.372Z,8.50
2019-03-08T12:06:15.705Z,8.10
2019-03-08T12:08:55.605Z,7.60
2019-03-08T12:11:42.379Z,7.40
2019-03-08T12:14:12.853Z,7.40
2019-03-08T12:16:52.286Z,7.70
2019-03-08T12:19:39.172Z,7.80
2019-03-08T12:22:12.667Z,7.90
2019-03-08T12:24:49.432Z,7.90
2019-03-08T12:27:23.291Z,8.00
2019-03-08T12:30:10.303Z,8.20
2019-03-08T12:32:40.965Z,7.90
2019-03-08T12:35:15.225Z,7.80
2019-03-08T12:37:45.860Z,7.80
2019-03-08T12:40:35.410Z,7.60
2019-03-08T12:43:08.266Z,7.50
2019-03-08T12:45:41.493Z,7.50
2019-03-08T12:48:24.312Z,7.30
2019-03-08T12:50:54.979Z,7.30
2019-03-08T12:53:32.002Z,7.30
2019-03-08T12:56:17.198Z,7.20
2019-03-08T12:58:59.744Z,7.30
2019-03-08T13:01:30.235Z,7.50
2019-03-08T13:04:17.260Z,7.60
2019-03-08T13:06:52.197Z,8.00
2019-03-08T13:09:29.212Z,8.20
2019-03-08T13:12:00.879Z,8.40
2019-03-08T13:14:30.169Z,8.50
2019-03-08T13:16:59.353Z,8.50
2019-03-08T13:19:28.648Z,8.60
2019-03-08T13:21:58.390Z,8.50
2019-03-08T13:24:29.013Z,8.10
2019-03-08T13:27:00.996Z,8.00
2019-03-08T13:29:35.432Z,8.00
2019-03-08T13:32:06.899Z,7.90
2019-03-08T13:34:38.626Z,7.90
2019-03-08T13:37:09.654Z,7.70
2019-03-08T13:39:40.520Z,7.50
2019-03-08T13:42:10.447Z,7.60
2019-03-08T13:44:42.617Z,7.90
2019-03-08T13:47:14.151Z,8.00
2019-03-08T13:49:43.320Z,8.10
2019-03-08T13:52:12.209Z,8.10
2019-03-08T13:54:41.170Z,8.30
2019-03-08T13:57:10.135Z,8.20
2019-03-08T13:59:39.282Z,8.00
2019-03-08T14:02:08.228Z,7.90
2019-03-08T14:04:37.210Z,7.80
2019-03-08T14:07:06.118Z,7.60
2019-03-08T14:09:35.094Z,7.50
2019-03-08T14:12:04.023Z,7.60
2019-03-08T14:14:32.992Z,7.80
2019-03-08T14:17:02.433Z,7.80
2019-03-08T14:19:31.497Z,8.00
2019-03-08T14:22:00.469Z,8.00
2019-03-08T14:24:29.475Z,7.80
2019-03-08T14:26:58.437Z,7.70
2019-03-08T14:29:27.331Z,7.60
2019-03-08T14:31:57.879Z,7.60
2019-03-08T14:34:27.065Z,7.40
2019-03-08T14:36:56.026Z,7.40
2019-03-08T14:39:24.968Z,7.20
2019-03-08T14:42:05.339Z,7.20
2019-03-08T14:44:45.119Z,7.30
2019-03-08T14:47:29.442Z,7.60
2019-03-08T14:49:59.303Z,7.80
2019-03-08T14:52:28.830Z,7.70
2019-03-08T14:54:57.736Z,7.40
2019-03-08T14:57:27.501Z,7.30
2019-03-08T14:59:56.487Z,7.20
2019-03-08T15:02:25.553Z,7.20
2019-03-08T15:04:54.612Z,7.10
2019-03-08T15:07:23.559Z,7.10
2019-03-08T15:09:52.530Z,7.00
2019-03-08T15:12:21.563Z,7.00
2019-03-08T15:14:51.574Z,7.00
2019-03-08T15:17:20.535Z,7.00
2019-03-08T15:19:49.434Z,6.90
2019-03-08T15:22:18.920Z,7.00
2019-03-08T15:24:49.368Z,6.90
2019-03-08T15:27:19.288Z,6.90
2019-03-08T15:29:54.558Z,6.90
2019-03-08T15:32:21.522Z,6.90
2019-03-08T15:34:50.479Z,6.90
2019-03-08T15:37:19.389Z,7.00
2019-03-08T15:39:48.530Z,7.00
2019-03-08T15:42:17.435Z,6.90
2019-03-08T15:44:46.383Z,6.90
2019-03-08T15:47:23.339Z,6.90
2019-03-08T15:49:45.876Z,6.90
2019-03-08T15:52:14.778Z,6.90
2019-03-08T15:54:43.727Z,6.80
2019-03-08T15:57:12.632Z,6.80
2019-03-08T15:59:42.510Z,6.80
2019-03-08T16:02:11.529Z,6.90
2019-03-08T16:04:40.485Z,6.80
2019-03-08T16:07:09.458Z,6.70
2019-03-08T16:09:38.809Z,6.60
2019-03-08T16:12:07.710Z,6.50
2019-03-08T16:14:36.660Z,6.30
2019-03-08T16:17:05.570Z,5.80
2019-03-08T16:19:34.823Z,5.50
2019-03-08T16:22:03.737Z,5.40
2019-03-08T16:24:32.805Z,5.30
2019-03-08T16:27:02.363Z,5.20
2019-03-08T16:29:32.275Z,5.10
2019-03-08T16:32:05.772Z,5.10
2019-03-08T16:34:34.507Z,5.10
2019-03-08T16:37:10.769Z,5.10
2019-03-08T16:39:59.371Z,5.00
2019-03-08T16:42:32.623Z,5.00
2019-03-08T16:45:05.908Z,5.00
2019-03-08T16:47:36.178Z,5.00
2019-03-08T16:50:06.882Z,5.00
2019-03-08T16:52:49.478Z,5.00
2019-03-08T16:55:27.618Z,5.00
2019-03-08T16:57:58.115Z,5.00
2019-03-08T17:00:28.639Z,5.10
2019-03-08T17:02:59.118Z,5.10
2019-03-08T17:05:32.747Z,5.00
2019-03-08T17:08:03.231Z,5.00
2019-03-08T17:10:36.879Z,5.10
2019-03-08T17:13:13.359Z,5.10
2019-03-08T17:15:46.574Z,5.20
2019-03-08T17:18:25.869Z,5.20
2019-03-08T17:21:11.812Z,5.30
2019-03-08T17:23:42.284Z,5.30
2019-03-08T17:26:15.768Z,5.40
2019-03-08T17:29:04.326Z,5.40
2019-03-08T17:31:34.846Z,5.40
2019-03-08T17:34:08.376Z,5.50
2019-03-08T17:36:39.223Z,5.50
2019-03-08T17:39:20.701Z,5.50
2019-03-08T17:41:57.201Z,5.60
2019-03-08T17:44:29.018Z,5.60
2019-03-08T17:47:03.266Z,5.50
2019-03-08T17:49:50.068Z,5.40
2019-03-08T17:52:26.750Z,5.40
2019-03-08T17:55:11.533Z,5.50
2019-03-08T17:57:47.575Z,5.50
2019-03-08T18:00:24.743Z,5.50
2019-03-08T18:03:05.412Z,5.50
2019-03-08T18:05:38.699Z,5.00
2019-03-08T18:08:11.903Z,5.40
2019-03-08T18:10:45.135Z,5.50
2019-03-08T18:13:32.175Z,5.50
2019-03-08T18:16:02.650Z,5.50
2019-03-08T18:18:49.396Z,5.40
2019-03-08T18:21:19.895Z,5.20
2019-03-08T18:23:50.423Z,5.20
2019-03-08T18:26:37.175Z,5.20
2019-03-08T18:29:13.476Z,5.20
2019-03-08T18:31:43.959Z,5.20
2019-03-08T18:34:14.496Z,5.20
2019-03-08T18:36:47.947Z,5.20
2019-03-08T18:39:18.480Z,5.10
2019-03-08T18:41:51.919Z,5.00
2019-03-08T18:44:38.647Z,4.90
2019-03-08T18:47:21.192Z,4.80
2019-03-08T18:49:57.366Z,4.80
2019-03-08T18:52:30.564Z,4.70
2019-03-08T18:55:10.370Z,4.60
2019-03-08T18:57:43.996Z,4.50
2019-03-08T19:00:30.756Z,4.40
2019-03-08T19:03:13.538Z,4.50
2019-03-08T19:05:50.241Z,4.40
2019-03-08T19:08:21.122Z,4.40
2019-03-08T19:11:03.800Z,4.40
2019-03-08T19:13:50.805Z,4.40
2019-03-08T19:16:26.991Z,4.30
2019-03-08T19:19:02.947Z,4.30
2019-03-08T19:21:45.769Z,4.30
2019-03-08T19:24:22.544Z,4.30
2019-03-08T19:27:09.375Z,4.20
2019-03-08T19:29:56.337Z,4.20
2019-03-08T19:32:43.100Z,4.20
2019-03-08T19:35:29.960Z,4.10
2019-03-08T19:38:16.779Z,4.00
2019-03-08T19:40:55.822Z,4.00
2019-03-08T19:43:42.866Z,4.00
2019-03-08T19:46:16.379Z,4.00
2019-03-08T19:48:55.927Z,4.00
2019-03-08T19:51:34.949Z,3.90
2019-03-08T19:54:08.226Z,3.90
2019-03-08T19:56:50.746Z,3.80
2019-03-08T19:59:27.432Z,3.80
2019-03-08T20:02:16.141Z,3.80
2019-03-08T20:04:46.677Z,3.80
2019-03-08T20:07:20.082Z,3.80
2019-03-08T20:09:56.864Z,3.80
2019-03-08T20:12:44.018Z,3.80
2019-03-08T20:15:24.212Z,3.80
2019-03-08T20:17:54.815Z,3.70
2019-03-08T20:20:25.334Z,3.70
2019-03-08T20:23:11.315Z,3.70
2019-03-08T20:25:48.143Z,3.70
2019-03-08T20:28:27.576Z,3.70
2019-03-08T20:30:58.109Z,3.80
2019-03-08T20:33:40.814Z,3.90
2019-03-08T20:36:23.437Z,3.90
2019-03-08T20:39:00.062Z,3.90
2019-03-08T20:41:36.592Z,3.90
2019-03-08T20:44:12.529Z,3.90
2019-03-08T20:46:43.250Z,3.90
2019-03-08T20:49:12.163Z,3.80
2019-03-08T20:51:41.100Z,3.90
2019-03-08T20:54:10.009Z,3.90
2019-03-08T20:56:38.963Z,5.10
2019-03-08T20:59:08.171Z,3.90
2019-03-08T21:01:37.119Z,3.90
2019-03-08T21:04:06.023Z,3.80
2019-03-08T21:06:35.167Z,3.80
2019-03-08T21:09:05.174Z,3.80
2019-03-08T21:11:34.122Z,3.90
2019-03-08T21:14:03.039Z,3.80
2019-03-08T21:16:31.994Z,3.80
2019-03-08T21:19:00.899Z,3.70
2019-03-08T21:21:29.842Z,3.70
2019-03-08T21:23:58.740Z,3.60
2019-03-08T21:26:27.640Z,3.50
2019-03-08T21:28:56.597Z,3.50
2019-03-08T21:31:25.496Z,3.40
2019-03-08T21:33:54.444Z,3.40
2019-03-08T21:36:23.546Z,3.40
2019-03-08T21:38:53.310Z,3.40
2019-03-08T21:41:22.213Z,3.30
2019-03-08T21:43:51.172Z,3.30
2019-03-08T21:46:20.075Z,3.30
2019-03-08T21:48:49.017Z,3.30
2019-03-08T21:51:17.924Z,3.20
2019-03-08T21:53:46.875Z,3.20
2019-03-08T21:56:15.784Z,3.30
2019-03-08T21:58:44.727Z,3.20
2019-03-08T22:01:13.629Z,3.20
2019-03-08T22:03:44.143Z,3.20
2019-03-08T22:06:13.049Z,3.20
2019-03-08T22:08:43.562Z,3.20
2019-03-08T22:11:15.679Z,3.20
2019-03-08T22:13:44.638Z,3.20
2019-03-08T22:16:13.524Z,3.30
2019-03-08T22:18:42.471Z,3.40
2019-03-08T22:21:11.374Z,3.30
2019-03-08T22:23:40.352Z,3.30
2019-03-08T22:26:09.335Z,3.30
2019-03-08T22:28:38.283Z,3.30
2019-03-08T22:31:07.280Z,3.20
2019-03-08T22:33:36.243Z,3.20
2019-03-08T22:36:05.147Z,3.30
2019-03-08T22:38:34.091Z,3.30
2019-03-08T22:41:02.991Z,3.30
2019-03-08T22:43:32.349Z,3.30
2019-03-08T22:46:01.243Z,3.30
2019-03-08T22:48:30.187Z,3.40
2019-03-08T22:50:59.114Z,3.40
2019-03-08T22:53:28.078Z,3.40
2019-03-08T22:55:56.989Z,3.40
2019-03-08T22:58:25.945Z,3.40
2019-03-08T23:01:04.274Z,3.40
2019-03-08T23:03:33.231Z,3.50
2019-03-08T23:06:02.133Z,3.50
2019-03-08T23:08:31.439Z,3.50
2019-03-08T23:11:00.394Z,3.50
2019-03-08T23:13:29.312Z,3.50
2019-03-08T23:15:58.268Z,3.50
2019-03-08T23:18:27.188Z,3.50
2019-03-08T23:20:56.425Z,3.50
2019-03-08T23:23:25.338Z,3.50
2019-03-08T23:25:54.274Z,3.50
2019-03-08T23:28:24.767Z,3.50
2019-03-08T23:30:58.113Z,3.50
2019-03-08T23:33:27.223Z,3.50
2019-03-08T23:35:56.271Z,3.60
2019-03-08T23:38:25.179Z,3.60
2019-03-08T23:40:54.608Z,3.60
2019-03-08T23:43:23.523Z,3.60
2019-03-08T23:45:52.887Z,3.60
2019-03-08T23:48:21.797Z,3.60
2019-03-08T23:50:50.754Z,3.60
2019-03-08T23:53:19.659Z,3.60
2019-03-08T23:55:48.610Z,3.60
2019-03-08T23:58:17.511Z,3.60
